Terminal Aerodrome Forecast
Issued by NWS Louisville, KY

Home | Current Version | Previous Version | Text Only | Print | Product List | Glossary On
Versions: 1 2 3 4 5 6 7 8 9 10 11 12 13 14 15 16 17 18 19 20 21 22 23 24
000
FTUS43 KLMK 032300
TAFBWG
TAF
KBWG 032320Z 0400/0424 28008KT P6SM -RA VCTS SCT040CB OVC150
     FM040300 22004KT 5SM BR BKN040
     FM040600 VRB03KT 3SM BR BKN008
     FM041400 27005KT P6SM BKN025=

USA.gov is the U.S. government's official web portal to all federal, state and local government web resources and services.